createdAt,value
2023-01-13T00:00:29.878Z,96725.53
2023-01-13T00:02:56.288Z,96724.53
2023-01-13T04:08:59.657Z,96640.50
2023-01-13T04:11:26.050Z,96640.91
2023-01-13T04:13:52.453Z,96647.59
2023-01-13T04:16:18.889Z,96647.16
2023-01-13T04:18:45.284Z,96643.41
2023-01-13T04:21:11.678Z,96642.81
2023-01-13T04:23:38.072Z,96639.28
2023-01-13T04:26:04.461Z,96638.63
2023-01-13T04:28:30.842Z,96648.88
2023-01-13T04:30:57.269Z,96649.13
2023-01-13T04:33:23.674Z,96643.56
2023-01-13T04:35:50.082Z,96641.84
2023-01-13T04:38:16.471Z,96645.50
2023-01-13T04:40:42.856Z,96648.94
2023-01-13T04:43:09.255Z,96650.16
2023-01-13T04:45:35.636Z,96648.59
2023-01-13T04:48:02.033Z,96647.41
2023-01-13T04:50:28.408Z,96651.00
2023-01-13T04:52:54.803Z,96645.50
2023-01-13T04:55:21.183Z,96658.78
2023-01-13T04:57:47.551Z,96656.44
2023-01-13T05:00:13.930Z,96652.16
2023-01-13T05:02:40.296Z,96651.78
2023-01-13T05:05:06.713Z,96652.16
2023-01-13T05:07:33.130Z,96659.66
2023-01-13T05:09:59.534Z,96653.34
2023-01-13T05:12:25.907Z,96651.78
2023-01-13T05:14:52.293Z,96653.78
2023-01-13T05:17:18.681Z,96657.22
2023-01-13T05:19:45.058Z,96657.56
2023-01-13T05:22:11.441Z,96670.94
2023-01-13T05:24:37.816Z,96662.34
2023-01-13T05:27:04.233Z,96659.53
2023-01-13T05:29:30.606Z,96657.22
2023-01-13T05:31:56.981Z,96666.88
2023-01-13T05:34:23.374Z,96660.34
2023-01-13T05:36:49.743Z,96662.25
2023-01-13T05:39:16.132Z,96654.03
2023-01-13T05:41:42.511Z,96663.78
2023-01-13T05:44:08.891Z,96657.59
2023-01-13T05:46:35.292Z,96657.47
2023-01-13T05:49:01.696Z,96661.56
2023-01-13T05:51:28.196Z,96667.88
2023-01-13T05:53:54.622Z,96671.09
2023-01-13T05:56:21.000Z,96663.09
2023-01-13T05:58:47.389Z,96674.81
2023-01-13T06:01:13.816Z,96665.06
2023-01-13T06:03:40.215Z,96677.94
2023-01-13T06:06:06.607Z,96668.41
2023-01-13T06:08:32.984Z,96669.59
2023-01-13T06:10:59.374Z,96668.03
2023-01-13T06:13:25.771Z,96664.50
2023-01-13T06:15:52.240Z,96661.53
2023-01-13T06:18:18.655Z,96652.44
2023-01-13T06:20:45.035Z,96663.09
2023-01-13T06:23:11.409Z,96666.16
2023-01-13T06:25:37.800Z,96673.03
2023-01-13T06:28:04.206Z,96677.94
2023-01-13T06:30:30.582Z,96684.69
2023-01-13T06:32:56.995Z,96675.94
2023-01-13T06:35:23.376Z,96679.56
2023-01-13T06:37:49.762Z,96678.34
2023-01-13T06:40:16.192Z,96672.78
2023-01-13T06:42:42.575Z,96670.56
2023-01-13T06:45:08.980Z,96687.22
2023-01-13T06:47:35.356Z,96686.88
2023-01-13T06:50:01.777Z,96681.91
2023-01-13T06:52:28.163Z,96681.66
2023-01-13T06:54:54.538Z,96678.47
2023-01-13T06:57:20.939Z,96684.31
2023-01-13T06:59:47.337Z,96683.19
2023-01-13T07:02:13.831Z,96685.50
2023-01-13T07:04:40.281Z,96687.75
2023-01-13T07:07:06.659Z,96690.75
2023-01-13T07:09:33.050Z,96679.00
2023-01-13T07:11:59.426Z,96686.97
2023-01-13T07:14:25.805Z,96688.50
2023-01-13T07:16:52.228Z,96688.88
2023-01-13T07:19:19.662Z,96695.38
2023-01-13T07:21:47.142Z,96698.03
2023-01-13T07:24:13.538Z,96696.84
2023-01-13T07:26:39.946Z,96693.81
2023-01-13T07:29:06.346Z,96695.81
2023-01-13T07:31:32.769Z,96685.97
2023-01-13T07:33:59.931Z,96687.50
2023-01-13T07:36:26.325Z,96687.50
2023-01-13T07:38:54.746Z,96691.94
2023-01-13T07:41:21.318Z,96700.03
2023-01-13T07:43:47.720Z,96696.28
2023-01-13T07:46:14.175Z,96705.69
2023-01-13T07:48:40.585Z,96711.47
2023-01-13T07:51:06.961Z,96707.47
2023-01-13T07:53:33.364Z,96701.16
2023-01-13T07:55:59.786Z,96704.25
2023-01-13T07:58:26.181Z,96705.78
2023-01-13T08:00:52.662Z,96694.81
2023-01-13T08:03:19.134Z,96700.69
2023-01-13T08:05:45.513Z,96707.78
2023-01-13T08:08:11.903Z,96703.13
2023-01-13T08:10:38.296Z,96715.75
2023-01-13T08:13:04.699Z,96724.31
2023-01-13T08:15:31.079Z,96724.84
2023-01-13T08:17:57.467Z,96730.38
2023-01-13T08:20:23.838Z,96739.69
2023-01-13T08:22:50.258Z,96740.22
2023-01-13T08:25:16.644Z,96724.94
2023-01-13T08:27:43.031Z,96732.16
2023-01-13T08:30:09.450Z,96729.06
2023-01-13T08:32:35.954Z,96728.72
2023-01-13T08:35:02.372Z,96723.03
2023-01-13T08:37:28.789Z,96719.06
2023-01-13T08:39:55.164Z,96722.50
2023-01-13T08:42:21.638Z,96729.38
2023-01-13T08:44:48.064Z,96733.94
2023-01-13T08:47:14.435Z,96730.84
2023-01-13T08:49:40.823Z,96732.50
2023-01-13T08:52:07.207Z,96736.59
2023-01-13T08:54:33.601Z,96731.03
2023-01-13T08:57:00.089Z,96733.84
2023-01-13T08:59:26.509Z,96744.31
2023-01-13T09:01:53.043Z,96742.13
2023-01-13T09:04:19.647Z,96738.78
2023-01-13T09:06:46.171Z,96745.88
2023-01-13T09:09:12.665Z,96736.56
2023-01-13T09:11:39.081Z,96736.22
2023-01-13T09:14:05.473Z,96741.00
2023-01-13T09:16:31.881Z,96720.34
2023-01-13T09:18:58.282Z,96727.94
2023-01-13T09:21:24.670Z,96723.81
2023-01-13T09:23:51.096Z,96729.72
2023-01-13T09:26:17.499Z,96716.19
2023-01-13T09:28:43.887Z,96714.50
2023-01-13T09:31:10.317Z,96721.13
2023-01-13T09:33:36.756Z,96713.25
2023-01-13T09:36:03.139Z,96716.13
2023-01-13T09:38:29.528Z,96724.22
2023-01-13T09:40:55.944Z,96714.38
2023-01-13T09:43:22.330Z,96719.56
2023-01-13T09:45:48.710Z,96737.88
2023-01-13T09:48:15.115Z,96738.09
2023-01-13T09:50:41.495Z,96748.59
2023-01-13T09:53:07.889Z,96748.75
2023-01-13T09:55:34.277Z,96747.41
2023-01-13T09:58:00.641Z,96753.91
2023-01-13T10:00:27.035Z,96751.50
2023-01-13T10:02:53.410Z,96753.84
2023-01-13T10:05:19.814Z,96754.53
2023-01-13T10:07:46.307Z,96752.41
2023-01-13T10:10:12.873Z,96751.78
2023-01-13T10:12:39.464Z,96743.63
2023-01-13T10:15:05.865Z,96739.22
2023-01-13T10:17:32.242Z,96730.38
2023-01-13T10:19:58.625Z,96741.78
2023-01-13T10:22:25.029Z,96740.00
2023-01-13T10:24:51.528Z,96738.66
2023-01-13T10:27:17.949Z,96749.63
2023-01-13T10:29:44.344Z,96747.84
2023-01-13T10:32:10.720Z,96749.72
2023-01-13T10:34:37.104Z,96747.50
2023-01-13T10:37:03.505Z,96739.75
2023-01-13T10:39:29.888Z,96737.22
2023-01-13T10:41:56.272Z,96737.28
2023-01-13T10:44:22.690Z,96735.41
2023-01-13T10:46:49.091Z,96732.53
2023-01-13T10:49:15.471Z,96745.59
2023-01-13T10:51:41.863Z,96739.75
2023-01-13T10:54:08.226Z,96745.84
2023-01-13T10:56:34.614Z,96749.72
2023-01-13T10:59:01.018Z,96735.28
2023-01-13T11:01:27.521Z,96739.38
2023-01-13T11:03:53.975Z,96746.81
2023-01-13T11:06:20.393Z,96742.47
2023-01-13T11:08:46.820Z,96734.16
2023-01-13T11:11:13.194Z,96736.09
2023-01-13T11:13:39.590Z,96732.34
2023-01-13T11:16:06.105Z,96735.91
2023-01-13T11:18:32.475Z,96739.41
2023-01-13T11:20:58.849Z,96743.44
2023-01-13T11:23:25.234Z,96752.06
2023-01-13T11:25:51.640Z,96738.44
2023-01-13T11:28:18.026Z,96735.78
2023-01-13T11:30:44.417Z,96745.22
2023-01-13T11:33:10.828Z,96735.78
2023-01-13T11:35:37.231Z,96743.19
2023-01-13T11:38:03.650Z,96736.53
2023-01-13T11:40:30.058Z,96728.59
2023-01-13T11:42:56.467Z,96731.81
2023-01-13T11:45:22.854Z,96726.47
2023-01-13T11:47:49.263Z,96732.88
2023-01-13T11:50:15.696Z,96754.72
2023-01-13T11:52:42.134Z,96753.09
2023-01-13T11:55:08.530Z,96774.81
2023-01-13T11:57:34.917Z,96783.53
2023-01-13T12:00:01.420Z,96804.28
2023-01-13T12:02:27.896Z,96818.03
2023-01-13T12:04:54.311Z,96832.00
2023-01-13T12:07:23.038Z,96836.00
2023-01-13T12:09:49.721Z,96831.00
2023-01-13T12:12:16.136Z,96837.66
2023-01-13T12:14:42.524Z,96844.19
2023-01-13T12:17:08.948Z,96835.06
2023-01-13T12:19:35.342Z,96831.84
2023-01-13T12:22:01.740Z,96851.81
2023-01-13T12:24:28.144Z,96864.72
2023-01-13T12:26:54.539Z,96851.25
2023-01-13T12:29:20.962Z,96858.16
2023-01-13T12:31:47.357Z,96862.03
2023-01-13T12:34:13.735Z,96856.03
2023-01-13T12:36:40.135Z,96848.28
2023-01-13T12:39:06.529Z,96833.41
2023-01-13T12:41:32.934Z,96843.63
2023-01-13T12:43:59.334Z,96827.00
2023-01-13T12:46:25.725Z,96820.78
2023-01-13T12:48:52.138Z,96812.38
2023-01-13T12:51:18.597Z,96820.88
2023-01-13T12:53:45.011Z,96811.81
2023-01-13T12:56:11.433Z,96821.66
2023-01-13T12:58:37.827Z,96819.75
2023-01-13T13:01:04.324Z,96812.88
2023-01-13T13:03:30.770Z,96810.34
2023-01-13T13:05:57.171Z,96795.94
2023-01-13T13:08:23.574Z,96811.22
2023-01-13T13:10:49.976Z,96807.88
2023-01-13T13:13:16.414Z,96804.59
2023-01-13T13:15:42.858Z,96800.81
2023-01-13T13:18:09.258Z,96784.94
2023-01-13T13:20:35.652Z,96781.44
2023-01-13T13:23:02.045Z,96775.63
2023-01-13T13:25:28.456Z,96774.41
2023-01-13T13:27:54.852Z,96774.84
2023-01-13T13:30:21.246Z,96767.88
2023-01-13T13:32:47.655Z,96767.09
2023-01-13T13:35:14.064Z,96777.75
2023-01-13T13:37:40.462Z,96774.53
2023-01-13T13:40:06.882Z,96768.97
2023-01-13T13:42:33.473Z,96772.34
2023-01-13T13:44:59.902Z,96769.22
2023-01-13T13:47:26.328Z,96772.34
2023-01-13T13:49:52.723Z,96783.94
2023-01-13T13:52:19.188Z,96783.31
2023-01-13T13:54:45.707Z,96786.06
2023-01-13T13:57:12.107Z,96788.06
2023-01-13T13:59:38.511Z,96789.63
2023-01-13T14:02:05.048Z,96794.81
2023-01-13T14:04:31.580Z,96801.25
2023-01-13T14:06:57.997Z,96799.47
2023-01-13T14:09:24.376Z,96802.91
2023-01-13T14:11:50.793Z,96805.00
2023-01-13T14:14:17.284Z,96803.56
2023-01-13T14:16:43.685Z,96802.47
2023-01-13T14:19:10.093Z,96794.81
2023-01-13T14:21:36.493Z,96794.16
2023-01-13T14:24:02.867Z,96806.94
2023-01-13T14:26:29.257Z,96804.59
2023-01-13T14:28:55.644Z,96806.56
2023-01-13T14:31:22.092Z,96814.91
2023-01-13T14:33:48.505Z,96811.66
2023-01-13T14:36:14.894Z,96810.34
2023-01-13T14:38:41.289Z,96800.38
2023-01-13T14:41:07.698Z,96817.22
2023-01-13T14:43:34.089Z,96816.00
2023-01-13T14:46:00.512Z,96829.41
2023-01-13T14:48:26.938Z,96840.06
2023-01-13T14:50:53.327Z,96831.84
2023-01-13T14:53:19.723Z,96838.94
2023-01-13T14:55:46.137Z,96846.94
2023-01-13T14:58:12.545Z,96852.91
2023-01-13T15:00:38.945Z,96864.16
2023-01-13T15:03:05.379Z,96869.47
2023-01-13T15:05:31.803Z,96883.75
2023-01-13T15:07:58.180Z,96892.41
2023-01-13T15:10:24.601Z,96911.50
2023-01-13T15:12:50.986Z,96917.69
2023-01-13T15:15:17.388Z,96912.59
2023-01-13T15:17:43.869Z,96903.16
2023-01-13T15:20:10.251Z,96892.88
2023-01-13T15:22:36.634Z,96892.88
2023-01-13T15:25:03.034Z,96879.09
2023-01-13T15:27:29.450Z,96884.44
2023-01-13T15:29:55.852Z,96886.97
2023-01-13T15:32:22.244Z,96892.97
2023-01-13T15:34:48.649Z,96897.59
2023-01-13T15:37:15.049Z,96902.81
2023-01-13T15:39:41.441Z,96906.91
2023-01-13T15:42:07.873Z,96909.47
2023-01-13T15:44:34.257Z,96905.81
2023-01-13T15:47:00.672Z,96907.69
2023-01-13T15:49:27.072Z,96919.66
2023-01-13T15:51:53.466Z,96927.00
2023-01-13T15:54:19.850Z,96929.53
2023-01-13T15:56:46.258Z,96931.22
2023-01-13T15:59:12.646Z,96929.44
2023-01-13T16:01:39.052Z,96923.25
2023-01-13T16:04:05.508Z,96928.75
2023-01-13T16:06:31.906Z,96932.97
2023-01-13T16:08:58.302Z,96935.09
2023-01-13T16:11:24.689Z,96941.63
2023-01-13T16:13:51.077Z,96940.97
2023-01-13T16:16:17.506Z,96944.84
2023-01-13T16:18:43.911Z,96936.41
2023-01-13T16:21:10.347Z,96948.84
2023-01-13T16:23:36.744Z,96961.81
2023-01-13T16:26:03.222Z,96965.03
2023-01-13T16:28:29.624Z,96966.22
2023-01-13T16:30:56.013Z,96967.91
2023-01-13T16:33:22.421Z,96980.22
2023-01-13T16:36:10.484Z,96981.31
2023-01-13T16:38:35.183Z,96991.97
2023-01-13T16:41:01.626Z,96998.84
2023-01-13T16:43:28.027Z,96998.72
2023-01-13T16:45:54.505Z,97009.38
2023-01-13T16:48:20.937Z,97007.16
2023-01-13T16:50:47.313Z,97013.47
2023-01-13T16:53:13.693Z,97013.47
2023-01-13T16:55:40.078Z,97010.03
2023-01-13T16:58:06.474Z,97017.91
2023-01-13T17:00:32.854Z,97010.38
2023-01-13T17:02:59.250Z,97026.00
2023-01-13T17:05:25.694Z,97024.13
2023-01-13T17:07:52.070Z,97021.25
2023-01-13T17:10:18.483Z,97024.78
2023-01-13T17:12:44.871Z,97030.47
2023-01-13T17:15:11.277Z,97025.88
2023-01-13T17:17:37.649Z,97023.44
2023-01-13T17:20:04.041Z,97025.34
2023-01-13T17:22:30.448Z,97032.09
2023-01-13T17:24:56.833Z,97027.66
2023-01-13T17:27:23.323Z,97024.69
2023-01-13T17:29:49.722Z,97029.91
2023-01-13T17:32:16.097Z,97039.00
2023-01-13T17:34:42.616Z,97042.97
2023-01-13T17:37:08.989Z,97046.97
2023-01-13T17:39:35.354Z,97056.06
2023-01-13T17:42:01.740Z,97071.59
2023-01-13T17:44:28.128Z,97077.44
2023-01-13T17:46:54.507Z,97087.88
2023-01-13T17:49:20.913Z,97089.38
2023-01-13T17:51:47.315Z,97108.81
2023-01-13T17:54:13.679Z,97105.72
2023-01-13T17:56:40.079Z,97095.19
2023-01-13T17:59:06.474Z,97099.53
2023-01-13T18:01:32.940Z,97110.28
2023-01-13T18:03:59.425Z,97114.13
2023-01-13T18:06:25.808Z,97123.38
2023-01-13T18:08:52.197Z,97125.69
2023-01-13T18:11:18.604Z,97136.44
2023-01-13T18:13:44.988Z,97143.44
2023-01-13T18:16:11.401Z,97138.25
2023-01-13T18:18:37.795Z,97144.44
2023-01-13T18:21:04.388Z,97168.16
2023-01-13T18:23:30.824Z,97187.34
2023-01-13T18:25:57.204Z,97206.84
2023-01-13T18:28:23.609Z,97201.31
2023-01-13T18:30:50.043Z,97210.44
2023-01-13T18:33:16.448Z,97220.75
2023-01-13T18:35:42.932Z,97212.19
2023-01-13T18:38:09.315Z,97201.16
2023-01-13T18:40:35.700Z,97197.09
2023-01-13T18:43:02.174Z,97191.66
2023-01-13T18:45:28.605Z,97194.75
2023-01-13T18:47:55.014Z,97193.53
2023-01-13T18:50:21.412Z,97184.47
2023-01-13T18:52:47.790Z,97175.38
2023-01-13T18:55:14.184Z,97186.91
2023-01-13T18:57:40.573Z,97182.94
2023-01-13T19:00:06.951Z,97184.72
2023-01-13T19:02:33.402Z,97188.63
2023-01-13T19:04:59.778Z,97181.72
2023-01-13T19:07:26.205Z,97190.03
2023-01-13T19:09:52.591Z,97199.47
2023-01-13T19:12:18.997Z,97202.88
2023-01-13T19:14:45.421Z,97189.56
2023-01-13T19:17:11.814Z,97202.56
2023-01-13T19:19:38.213Z,97204.00
2023-01-13T19:22:04.603Z,97208.56
2023-01-13T19:24:31.021Z,97207.31
2023-01-13T19:26:57.424Z,97208.41
2023-01-13T19:29:23.831Z,97212.97
2023-01-13T19:31:50.229Z,97213.41
2023-01-13T19:34:16.622Z,97227.31
2023-01-13T19:36:43.067Z,97219.84
2023-01-13T19:39:09.568Z,97215.28
2023-01-13T19:41:35.991Z,97223.28
2023-01-13T19:44:02.428Z,97222.72
2023-01-13T19:46:28.849Z,97220.63
2023-01-13T19:48:55.293Z,97218.69
2023-01-13T19:51:21.673Z,97218.22
2023-01-13T19:53:48.075Z,97229.97
2023-01-13T19:56:14.480Z,97235.81
2023-01-13T19:58:40.885Z,97237.84
2023-01-13T20:01:07.314Z,97240.34
2023-01-13T20:03:33.714Z,97243.94
2023-01-13T20:06:00.122Z,97240.81
2023-01-13T20:08:26.502Z,97236.78
2023-01-13T20:10:52.896Z,97232.13
2023-01-13T20:13:19.282Z,97230.94
2023-01-13T20:15:45.683Z,97240.69
2023-01-13T20:18:12.126Z,97241.53
2023-01-13T20:20:38.538Z,97246.34
2023-01-13T20:23:04.932Z,97244.47
2023-01-13T20:25:31.474Z,97248.81
2023-01-13T20:27:57.926Z,97250.63
2023-01-13T20:30:24.335Z,97266.59
2023-01-13T20:32:50.729Z,97264.50
2023-01-13T20:35:17.166Z,97275.53
2023-01-13T20:37:43.575Z,97273.53
2023-01-13T20:40:09.968Z,97285.09
2023-01-13T20:42:36.397Z,97274.84
2023-01-13T20:45:02.775Z,97275.88
2023-01-13T20:47:29.186Z,97274.31
2023-01-13T20:49:55.821Z,97268.97
2023-01-13T20:52:22.207Z,97271.13
2023-01-13T20:54:48.583Z,97279.56
2023-01-13T20:57:14.968Z,97279.91
2023-01-13T20:59:41.367Z,97278.22
2023-01-13T21:02:07.872Z,97278.97
2023-01-13T21:04:34.282Z,97278.44
2023-01-13T21:07:00.678Z,97272.41
2023-01-13T21:09:27.073Z,97273.28
2023-01-13T21:11:53.458Z,97264.38
2023-01-13T21:14:19.844Z,97276.56
2023-01-13T21:16:46.264Z,97271.72
2023-01-13T21:19:12.656Z,97267.03
2023-01-13T21:21:39.102Z,97269.25
2023-01-13T21:24:05.503Z,97260.41
2023-01-13T21:26:31.886Z,97253.56
2023-01-13T21:28:58.297Z,97256.38
2023-01-13T21:31:26.825Z,97263.47
2023-01-13T21:33:53.365Z,97267.88
2023-01-13T21:36:19.764Z,97254.28
2023-01-13T21:38:46.135Z,97260.34
2023-01-13T21:41:12.528Z,97259.13
2023-01-13T21:43:38.928Z,97254.91
2023-01-13T21:46:05.699Z,97264.25
2023-01-13T21:48:32.155Z,97263.16
2023-01-13T21:50:58.540Z,97259.06
2023-01-13T21:53:24.962Z,97259.41
2023-01-13T21:55:51.387Z,97268.00
2023-01-13T21:58:17.781Z,97280.41
2023-01-13T22:00:44.203Z,97287.22
2023-01-13T22:03:10.618Z,97301.19
2023-01-13T22:05:36.986Z,97307.41
2023-01-13T22:08:03.394Z,97304.94
2023-01-13T22:10:29.826Z,97321.66
2023-01-13T22:12:56.210Z,97324.03
2023-01-13T22:15:22.601Z,97325.03
2023-01-13T22:17:49.007Z,97322.91
2023-01-13T22:20:15.410Z,97314.16
2023-01-13T22:22:41.800Z,97317.13
2023-01-13T22:25:08.186Z,97316.81
2023-01-13T22:27:34.564Z,97308.38
2023-01-13T22:30:00.939Z,97308.66
2023-01-13T22:32:27.337Z,97312.25
2023-01-13T22:34:53.722Z,97304.63
2023-01-13T22:37:20.125Z,97303.38
2023-01-13T22:39:46.520Z,97300.72
2023-01-13T22:42:12.928Z,97301.81
2023-01-13T22:44:39.331Z,97298.13
2023-01-13T22:47:05.706Z,97310.44
2023-01-13T22:49:32.095Z,97306.09
2023-01-13T22:51:58.482Z,97297.78
2023-01-13T22:54:24.873Z,97298.56
2023-01-13T22:56:51.272Z,97303.09
2023-01-13T22:59:17.693Z,97300.91
2023-01-13T23:01:44.073Z,97293.22
2023-01-13T23:04:10.543Z,97286.94
2023-01-13T23:06:36.958Z,97284.28
2023-01-13T23:09:03.347Z,97282.88
2023-01-13T23:11:29.738Z,97285.81
2023-01-13T23:13:56.134Z,97282.16
2023-01-13T23:16:22.634Z,97274.97
2023-01-13T23:18:49.044Z,97282.16
2023-01-13T23:21:15.439Z,97276.53
2023-01-13T23:23:41.836Z,97270.84
2023-01-13T23:26:08.225Z,97272.63
2023-01-13T23:28:34.619Z,97267.75
2023-01-13T23:31:01.246Z,97253.38
2023-01-13T23:33:27.687Z,97262.44
2023-01-13T23:35:54.072Z,97255.09
2023-01-13T23:38:20.462Z,97254.31
2023-01-13T23:40:46.863Z,97253.09
2023-01-13T23:43:13.265Z,97261.38
2023-01-13T23:45:39.656Z,97260.09
2023-01-13T23:48:06.037Z,97254.19
2023-01-13T23:50:32.429Z,97250.44
2023-01-13T23:52:58.837Z,97244.22
2023-01-13T23:55:25.225Z,97246.09
2023-01-13T23:57:51.630Z,97244.66
